Owensboro Daviess County Airport
KOWB : now visible

Airfield :











YOU CAN JOIN US ON...

 
LOGIN :

Register | Disclaimer

   EN    FR    IT 

 









Legend :    VFR   Marginal VFR   IFR   Intensive IFR   Very Intensive IFR
Visi :
Ceiling :
>= 8 km
>= 3000ft
5 to 8 km
1000 to 3000 ft
1500m to 5 km
500 to 1000 ft
800 to 1500m
200 to 500 ft
< 800m
< 200 ft
Symbols :   Thunderstorms  Fog  Heavy snow  Heavy precipitations  Wind > 20 kt






- Airport Elevation : 407 ft
- IATA code : OWB


KOWB - Owensboro Daviess County

CURRENT METAR :
  • 090456Z AUTO 25005KT 10SM CLR 16/14 A2968 RMK AO2 RAE00 SLP050 P0000 T01560144

EXPIRED METARs :
  • 090356Z AUTO 12005KT 10SM -RA FEW075 SCT110 17/14 A2967 RMK AO2 RAB09 SLP045 P0000 T01720144
  • 090256Z 36013G18KT 10SM SCT110 19/12 A2968 RMK AO2 PK WND 31039/0223 WSHFT 0214 LTG DSNT NE AND E SLP049 T01890117 53031
  • 090228Z 35023G39KT 7SM CLR 22/13 A2964 RMK AO2 PK WND 31039/0223 WSHFT 0214 LTG DSNT NE PRESRR

TAF KOWB
Valid from the 09 at 04:00 until the 10 at 00:00 UTC


090408Z 0904/0924 VRB05KT P6SM VCSH FEW040 OVC090
FM090500 30011G19KT P6SM OVC100
FM090700 32015G25KT P6SM BKN035
FM092300 29013KT P6SM SCT150



MET'MAP, your aeronautical weather chart ! - Copyright ORBIFLY December 2007 - Disclaimer

ORBIFLY MET'MAP TEAM :

Programming & Development : Alexandra Zaïnal
Concept & original design : Baudouin d'Aumeries
Assistance for programming : Marc-Olivier Méhu
Technical & hardware support : Manuel Goepfert

Contact : metmap@orbifly.com




SOURCES & CREDITS :

   NOAA       Earth
Advisory